Stanchfield, Minnesota
Current Conditions -  °F | °C
As of 8:16 AM on Saturday 22 Nov 2014 (Local Time) from KCBG Reporting Station
Haze Haze  
Wind Chill: 31°   Ceiling: 700
Heat Index: 36°   Visibility: 2.5mi
Dew Point: 28°   Wind: 6mph
Humidity: 75%   Direction: 190°S
Pressure: 29.73"   Gusts: NA
Location:  45.67°N, 93.18°W
Report Text: KCBG 221416Z AUTO 19005KT 2 1/2SM HZ OVC007 02/M02 A2973 RMK AO2
Loading
Personal Weather Stations






























Interactive Weather Map New forecast layout! Learn more

10-Day Weather Forecast

Advertisements
Track Severe Weather on mobile